createdAt,value
2019-01-20T00:02:26.128Z,-2.90
2019-01-20T00:04:53.888Z,-2.80
2019-01-20T00:07:21.450Z,-2.80
2019-01-20T00:09:49.174Z,-2.90
2019-01-20T00:12:16.797Z,-2.90
2019-01-20T00:14:44.387Z,-3.00
2019-01-20T00:17:12.271Z,-3.00
2019-01-20T00:19:39.972Z,-3.10
2019-01-20T00:22:07.675Z,-3.20
2019-01-20T00:24:35.265Z,-3.30
2019-01-20T00:27:02.831Z,-3.30
2019-01-20T00:29:29.979Z,-3.30
2019-01-20T00:31:57.650Z,-3.30
2019-01-20T00:34:25.343Z,-3.30
2019-01-20T00:36:52.916Z,-3.40
2019-01-20T00:39:20.617Z,-3.40
2019-01-20T00:41:48.241Z,-3.30
2019-01-20T00:44:15.501Z,-3.30
2019-01-20T00:46:43.032Z,-3.20
2019-01-20T00:49:10.647Z,-3.20
2019-01-20T00:51:37.900Z,-3.10
2019-01-20T00:54:05.760Z,-3.00
2019-01-20T00:56:33.371Z,-3.00
2019-01-20T00:59:00.522Z,-3.10
2019-01-20T01:01:27.959Z,-3.20
2019-01-20T01:03:55.398Z,-3.30
2019-01-20T01:06:22.944Z,-3.30
2019-01-20T01:08:50.756Z,-3.40
2019-01-20T01:11:18.437Z,-3.40
2019-01-20T01:13:46.229Z,-3.50
2019-01-20T01:16:13.869Z,-3.50
2019-01-20T01:18:41.634Z,-3.60
2019-01-20T01:21:09.244Z,-3.60
2019-01-20T01:23:37.212Z,-3.70
2019-01-20T01:26:04.532Z,-3.60
2019-01-20T01:28:31.813Z,-3.60
2019-01-20T01:30:59.707Z,-3.60
2019-01-20T01:33:27.347Z,-3.60
2019-01-20T01:35:54.832Z,-3.60
2019-01-20T01:38:22.470Z,-3.70
2019-01-20T01:40:50.224Z,-3.70
2019-01-20T01:43:17.738Z,-3.70
2019-01-20T01:45:45.172Z,-3.70
2019-01-20T01:48:13.169Z,-3.80
2019-01-20T01:50:40.736Z,-3.80
2019-01-20T01:53:08.430Z,-3.80
2019-01-20T01:55:36.098Z,-3.90
2019-01-20T01:58:03.918Z,-4.00
2019-01-20T02:00:31.686Z,-4.10
2019-01-20T02:02:59.546Z,-4.10
2019-01-20T02:05:27.161Z,-4.10
2019-01-20T02:07:55.111Z,-4.10
2019-01-20T02:10:22.701Z,-4.10
2019-01-20T02:12:51.832Z,-4.20
2019-01-20T02:15:20.935Z,-4.20
2019-01-20T02:17:49.077Z,-4.20
2019-01-20T02:20:21.971Z,-4.30
2019-01-20T02:22:49.663Z,-4.30
2019-01-20T02:25:17.472Z,-4.30
2019-01-20T02:27:45.192Z,-4.40
2019-01-20T02:30:18.980Z,-4.40
2019-01-20T02:32:46.710Z,-4.50
2019-01-20T02:35:17.749Z,-4.50
2019-01-20T02:37:45.453Z,-4.50
2019-01-20T02:40:13.783Z,-4.50
2019-01-20T02:42:41.281Z,-4.50
2019-01-20T02:45:10.230Z,-4.50
2019-01-20T02:47:38.167Z,-4.60
2019-01-20T02:50:06.931Z,-4.60
2019-01-20T02:52:34.419Z,-4.70
2019-01-20T02:55:01.944Z,-4.70
2019-01-20T02:57:29.490Z,-4.70
2019-01-20T02:59:57.605Z,-4.70
2019-01-20T03:02:25.240Z,-4.80
2019-01-20T03:04:52.999Z,-4.80
2019-01-20T03:07:21.110Z,-4.80
2019-01-20T03:09:48.766Z,-4.80
2019-01-20T03:12:16.579Z,-4.80
2019-01-20T03:14:44.269Z,-4.90
2019-01-20T03:17:12.036Z,-4.80
2019-01-20T03:19:39.773Z,-4.80
2019-01-20T03:22:07.874Z,-4.80
2019-01-20T03:24:36.055Z,-4.80
2019-01-20T03:27:04.137Z,-4.80
2019-01-20T03:29:32.015Z,-4.80
2019-01-20T03:31:59.755Z,-4.80
2019-01-20T03:34:27.636Z,-4.70
2019-01-20T03:36:55.221Z,-4.70
2019-01-20T03:39:23.126Z,-4.70
2019-01-20T03:41:51.069Z,-4.70
2019-01-20T03:44:18.966Z,-4.70
2019-01-20T03:46:46.480Z,-4.70
2019-01-20T03:49:14.199Z,-4.70
2019-01-20T03:51:41.821Z,-4.70
2019-01-20T03:54:09.410Z,-4.70
2019-01-20T03:56:37.087Z,-4.80
2019-01-20T03:59:04.643Z,-4.80
2019-01-20T04:01:32.360Z,-4.80
2019-01-20T04:04:00.049Z,-4.80
2019-01-20T04:06:27.514Z,-4.90
2019-01-20T04:08:55.315Z,-4.90
2019-01-20T04:11:23.715Z,-4.90
2019-01-20T04:13:51.548Z,-5.00
2019-01-20T04:16:19.381Z,-5.00
2019-01-20T04:18:47.351Z,-4.90
2019-01-20T04:21:15.152Z,-5.00
2019-01-20T04:23:43.102Z,-5.00
2019-01-20T04:26:11.079Z,-5.00
2019-01-20T04:28:39.323Z,-5.10
2019-01-20T04:31:07.248Z,-5.10
2019-01-20T04:33:35.409Z,-5.10
2019-01-20T04:36:03.976Z,-5.10
2019-01-20T04:38:38.315Z,-5.10
2019-01-20T04:41:06.084Z,-5.10
2019-01-20T04:43:34.778Z,-5.20
2019-01-20T04:46:03.374Z,-5.20
2019-01-20T04:48:31.618Z,-5.20
2019-01-20T04:50:59.336Z,-5.10
2019-01-20T04:53:28.816Z,-5.20
2019-01-20T04:55:56.870Z,-5.00
2019-01-20T04:58:25.122Z,-5.10
2019-01-20T05:00:53.384Z,-5.10
2019-01-20T05:03:21.622Z,-5.10
2019-01-20T05:05:49.751Z,-5.00
2019-01-20T05:08:18.420Z,-5.00
2019-01-20T05:10:46.169Z,-5.00
2019-01-20T05:13:14.218Z,-4.90
2019-01-20T05:15:43.210Z,-4.90
2019-01-20T05:18:11.390Z,-4.90
2019-01-20T05:20:41.553Z,-5.00
2019-01-20T05:23:09.942Z,-5.00
2019-01-20T05:25:37.811Z,-5.00
2019-01-20T05:28:06.319Z,-4.90
2019-01-20T05:30:34.940Z,-4.80
2019-01-20T05:33:03.839Z,-4.80
2019-01-20T05:35:35.566Z,-4.70
2019-01-20T05:38:04.265Z,-4.70
2019-01-20T05:40:32.823Z,-4.60
2019-01-20T05:43:03.460Z,-4.60
2019-01-20T05:45:38.916Z,-4.70
2019-01-20T05:48:07.873Z,-4.60
2019-01-20T05:50:37.414Z,-4.70
2019-01-20T05:53:08.463Z,-4.70
2019-01-20T05:55:37.737Z,-4.70
2019-01-20T05:58:07.326Z,-4.80
2019-01-20T06:00:41.721Z,-4.80
2019-01-20T06:03:11.111Z,-4.90
2019-01-20T06:05:40.960Z,-4.90
2019-01-20T06:08:10.513Z,-4.80
2019-01-20T06:10:42.725Z,-4.80
2019-01-20T06:13:11.386Z,-4.80
2019-01-20T06:15:40.843Z,-4.80
2019-01-20T06:18:09.659Z,-4.80
2019-01-20T06:20:47.228Z,-4.80
2019-01-20T06:23:20.828Z,-4.80
2019-01-20T06:25:57.868Z,-4.80
2019-01-20T06:28:45.459Z,-4.80
2019-01-20T06:31:15.525Z,-4.80
2019-01-20T06:33:47.593Z,-4.80
2019-01-20T06:36:27.492Z,-4.90
2019-01-20T06:38:58.242Z,-4.90
2019-01-20T06:41:29.164Z,-4.90
2019-01-20T06:43:57.797Z,-4.90
2019-01-20T06:46:25.905Z,-4.90
2019-01-20T06:48:54.854Z,-4.80
2019-01-20T06:51:23.819Z,-4.80
2019-01-20T06:53:52.024Z,-4.80
2019-01-20T06:56:20.870Z,-4.80
2019-01-20T06:58:50.727Z,-4.80
2019-01-20T07:01:26.280Z,-4.80
2019-01-20T07:04:00.734Z,-4.80
2019-01-20T07:06:29.394Z,-4.70
2019-01-20T07:09:01.344Z,-4.70
2019-01-20T07:11:29.026Z,-4.70
2019-01-20T07:20:36.863Z,-4.60
2019-01-20T07:23:05.181Z,-4.60
2019-01-20T07:25:35.883Z,-4.60
2019-01-20T07:28:05.705Z,-4.60
2019-01-20T07:30:36.045Z,-4.50
2019-01-20T07:33:05.326Z,-4.50
2019-01-20T07:35:33.666Z,-4.40
2019-01-20T07:38:01.324Z,-4.40
2019-01-20T07:40:28.888Z,-4.30
2019-01-20T07:42:56.809Z,-4.20
2019-01-20T07:45:26.612Z,-4.10
2019-01-20T07:47:55.249Z,-4.00
2019-01-20T07:50:28.696Z,-3.90
2019-01-20T07:53:09.040Z,-3.80
2019-01-20T07:55:36.737Z,-3.60
2019-01-20T07:58:05.215Z,-3.30
2019-01-20T08:00:33.565Z,-3.10
2019-01-20T08:03:01.330Z,-2.20
2019-01-20T08:05:29.494Z,-1.10
2019-01-20T08:07:57.843Z,-0.70
2019-01-20T08:10:28.083Z,-0.80
2019-01-20T08:12:57.923Z,-1.20
2019-01-20T08:15:26.965Z,-1.50
2019-01-20T08:17:55.465Z,-1.70
2019-01-20T08:20:24.150Z,-1.90
2019-01-20T08:22:52.413Z,-1.90
2019-01-20T08:25:20.383Z,-2.00
2019-01-20T08:27:50.717Z,-2.00
2019-01-20T08:30:20.325Z,-1.90
2019-01-20T08:32:48.429Z,-1.90
2019-01-20T08:35:17.100Z,-1.80
2019-01-20T08:37:45.683Z,-1.70
2019-01-20T08:40:18.399Z,-1.60
2019-01-20T08:42:49.346Z,-1.50
2019-01-20T08:45:31.418Z,-1.40
2019-01-20T08:48:03.587Z,-1.30
2019-01-20T08:50:31.494Z,-1.20
2019-01-20T08:53:03.476Z,-1.20
2019-01-20T08:55:31.729Z,-1.20
2019-01-20T08:58:00.304Z,-1.00
2019-01-20T09:00:31.128Z,-1.00
2019-01-20T09:02:59.558Z,-1.00
2019-01-20T09:05:29.174Z,-1.00
2019-01-20T09:07:58.192Z,-0.90
2019-01-20T09:10:27.534Z,-0.90
2019-01-20T09:12:57.902Z,-0.90
2019-01-20T09:15:26.003Z,-0.80
2019-01-20T09:17:53.699Z,-0.90
2019-01-20T09:20:21.934Z,-0.80
2019-01-20T09:22:50.989Z,-0.90
2019-01-20T09:25:18.966Z,-0.90
2019-01-20T09:27:48.505Z,-0.80
2019-01-20T09:30:18.417Z,-0.70
2019-01-20T09:32:46.187Z,-0.60
2019-01-20T09:35:13.979Z,-0.40
2019-01-20T09:37:42.219Z,-0.20
2019-01-20T09:40:11.397Z,1.60
2019-01-20T09:42:40.508Z,4.00
2019-01-20T09:45:12.996Z,4.20
2019-01-20T09:47:41.107Z,3.80
2019-01-20T09:50:09.185Z,3.60
2019-01-20T09:52:39.254Z,3.60
2019-01-20T09:55:09.441Z,3.50
2019-01-20T09:57:39.435Z,3.00
2019-01-20T10:00:10.049Z,2.60
2019-01-20T10:02:38.011Z,2.20
2019-01-20T10:05:05.785Z,1.90
2019-01-20T10:07:34.735Z,1.70
2019-01-20T10:10:02.907Z,1.60
2019-01-20T10:12:30.813Z,1.50
2019-01-20T10:15:01.398Z,1.40
2019-01-20T10:17:29.181Z,1.40
2019-01-20T10:19:56.547Z,1.40
2019-01-20T10:22:24.121Z,1.40
2019-01-20T10:24:52.436Z,1.30
2019-01-20T10:27:20.223Z,1.30
2019-01-20T10:29:48.234Z,1.30
2019-01-20T10:32:16.279Z,1.30
2019-01-20T10:34:49.760Z,1.30
2019-01-20T10:37:17.921Z,1.30
2019-01-20T10:39:45.575Z,1.30
2019-01-20T10:42:13.419Z,1.20
2019-01-20T10:44:41.647Z,1.20
2019-01-20T10:47:09.444Z,1.20
2019-01-20T10:49:37.464Z,1.20
2019-01-20T10:52:05.573Z,1.20
2019-01-20T10:54:33.419Z,1.10
2019-01-20T10:57:02.508Z,1.00
2019-01-20T10:59:30.275Z,1.00
2019-01-20T11:01:58.432Z,1.10
2019-01-20T11:04:26.621Z,1.10
2019-01-20T11:06:55.111Z,1.20
2019-01-20T11:09:23.117Z,1.20
2019-01-20T11:11:51.079Z,1.10
2019-01-20T11:14:21.891Z,1.20
2019-01-20T11:16:49.601Z,1.10
2019-01-20T11:19:17.552Z,1.10
2019-01-20T11:21:45.920Z,1.20
2019-01-20T11:24:13.598Z,1.10
2019-01-20T11:26:41.150Z,1.20
2019-01-20T11:29:09.436Z,1.20
2019-01-20T11:31:37.581Z,1.10
2019-01-20T11:34:05.377Z,1.10
2019-01-20T11:36:33.499Z,1.10
2019-01-20T11:39:01.561Z,1.20
2019-01-20T11:41:29.814Z,1.30
2019-01-20T11:44:16.548Z,1.40
2019-01-20T11:46:39.107Z,1.50
2019-01-20T11:49:11.207Z,1.50
2019-01-20T11:51:41.412Z,1.60
2019-01-20T11:54:15.578Z,1.70
2019-01-20T11:56:58.000Z,1.70
2019-01-20T11:59:23.245Z,1.70
2019-01-20T12:01:51.299Z,1.80
2019-01-20T12:04:21.562Z,1.90
2019-01-20T12:06:50.193Z,2.10
2019-01-20T12:09:18.014Z,2.20
2019-01-20T12:11:45.935Z,2.10
2019-01-20T12:14:13.647Z,1.50
2019-01-20T12:16:41.634Z,1.30
2019-01-20T12:19:09.659Z,1.20
2019-01-20T12:21:38.131Z,1.20
2019-01-20T12:24:06.176Z,1.00
2019-01-20T12:26:48.823Z,1.10
2019-01-20T12:29:17.448Z,1.20
2019-01-20T12:31:47.587Z,1.30
2019-01-20T12:34:15.759Z,1.30
2019-01-20T12:36:43.569Z,1.30
2019-01-20T12:39:11.657Z,1.20
2019-01-20T12:41:39.339Z,1.20
2019-01-20T12:44:09.891Z,1.30
2019-01-20T12:46:38.093Z,1.30
2019-01-20T12:49:08.143Z,1.30
2019-01-20T12:51:36.062Z,1.20
2019-01-20T12:54:04.926Z,1.10
2019-01-20T12:56:35.028Z,1.00
2019-01-20T12:59:04.013Z,1.00
2019-01-20T13:01:36.789Z,1.00
2019-01-20T13:04:04.820Z,1.00
2019-01-20T13:06:35.439Z,0.90
2019-01-20T13:09:07.460Z,0.90
2019-01-20T13:11:35.548Z,0.80
2019-01-20T13:14:03.716Z,0.80
2019-01-20T13:16:49.566Z,0.80
2019-01-20T13:19:21.504Z,0.80
2019-01-20T13:21:50.010Z,0.80
2019-01-20T13:24:18.228Z,0.70
2019-01-20T13:26:46.160Z,0.60
2019-01-20T13:29:13.882Z,0.60
2019-01-20T13:31:41.740Z,0.60
2019-01-20T13:34:09.656Z,0.50
2019-01-20T13:36:37.425Z,0.60
2019-01-20T13:39:10.627Z,0.60
2019-01-20T13:41:38.404Z,0.60
2019-01-20T13:44:05.996Z,0.60
2019-01-20T13:46:36.755Z,0.60
2019-01-20T13:49:04.526Z,0.60
2019-01-20T13:51:32.614Z,0.60
2019-01-20T13:54:00.646Z,0.60
2019-01-20T13:56:28.932Z,0.60
2019-01-20T13:58:56.954Z,0.60
2019-01-20T14:01:27.097Z,0.60
2019-01-20T14:03:54.964Z,0.60
2019-01-20T14:06:22.896Z,0.60
2019-01-20T14:08:50.904Z,0.60
2019-01-20T14:11:19.072Z,0.60
2019-01-20T14:13:46.680Z,0.60
2019-01-20T14:16:14.539Z,0.60
2019-01-20T14:18:45.328Z,0.60
2019-01-20T14:21:12.420Z,0.60
2019-01-20T14:23:41.050Z,0.60
2019-01-20T14:26:09.141Z,0.50
2019-01-20T14:28:36.756Z,0.60
2019-01-20T14:31:05.317Z,0.50
2019-01-20T14:33:34.101Z,0.50
2019-01-20T14:36:02.023Z,0.50
2019-01-20T14:38:29.997Z,0.40
2019-01-20T14:40:58.143Z,0.40
2019-01-20T14:43:25.827Z,0.30
2019-01-20T14:45:54.221Z,0.20
2019-01-20T14:48:29.654Z,0.20
2019-01-20T14:50:57.565Z,0.20
2019-01-20T14:53:28.319Z,0.10
2019-01-20T14:59:00.204Z,0.20
2019-01-20T15:01:29.233Z,0.00
2019-01-20T15:03:56.870Z,-0.10
2019-01-20T15:06:25.646Z,-0.10
2019-01-20T15:08:54.137Z,-0.20
2019-01-20T15:12:08.005Z,-0.20
2019-01-20T15:14:18.672Z,-0.30
2019-01-20T15:16:46.856Z,-0.40
2019-01-20T15:19:14.884Z,-0.40
2019-01-20T15:21:42.749Z,-0.50
2019-01-20T15:24:11.255Z,-0.60
2019-01-20T15:26:38.879Z,-0.60
2019-01-20T15:29:07.269Z,-0.70
2019-01-20T15:31:38.194Z,-0.80
2019-01-20T15:34:06.089Z,-0.80
2019-01-20T15:36:34.120Z,-0.90
2019-01-20T15:39:04.931Z,-0.90
2019-01-20T15:41:33.461Z,-1.00
2019-01-20T15:44:01.801Z,-1.00
2019-01-20T15:46:31.701Z,-1.10
2019-01-20T15:48:59.881Z,-1.10
2019-01-20T15:51:27.385Z,-1.20
2019-01-20T15:53:55.087Z,-1.30
2019-01-20T15:56:23.403Z,-1.30
2019-01-20T15:58:51.792Z,-1.40
2019-01-20T16:01:19.753Z,-1.50
2019-01-20T16:03:47.397Z,-1.50
2019-01-20T16:06:15.937Z,-1.50
2019-01-20T16:08:43.575Z,-1.60
2019-01-20T16:11:11.271Z,-1.60
2019-01-20T16:13:39.217Z,-1.70
2019-01-20T16:16:07.012Z,-1.70
2019-01-20T16:18:34.472Z,-1.80
2019-01-20T16:21:02.033Z,-1.90
2019-01-20T16:23:29.465Z,-1.90
2019-01-20T16:25:57.207Z,-2.00
2019-01-20T16:28:25.122Z,-2.00
2019-01-20T16:34:45.092Z,-2.10
2019-01-20T16:37:12.899Z,-2.20
2019-01-20T16:39:45.579Z,-2.20
2019-01-20T16:42:10.510Z,-2.20
2019-01-20T16:44:37.981Z,-2.30
2019-01-20T16:47:05.869Z,-2.30
2019-01-20T16:49:33.689Z,-2.30
2019-01-20T16:52:01.191Z,-2.30
2019-01-20T17:00:50.998Z,-2.30
2019-01-20T17:03:24.142Z,-2.30
2019-01-20T17:05:53.491Z,-2.30
2019-01-20T17:08:51.664Z,-2.40
2019-01-20T17:11:18.526Z,-2.50
2019-01-20T17:13:46.076Z,-2.50
2019-01-20T17:16:13.793Z,-2.60
2019-01-20T17:18:41.488Z,-2.60
2019-01-20T17:21:09.575Z,-2.60
2019-01-20T17:23:37.579Z,-2.60
2019-01-20T17:26:05.140Z,-2.70
2019-01-20T17:28:32.806Z,-2.80
2019-01-20T17:31:02.354Z,-2.90
2019-01-20T17:33:30.368Z,-2.90
2019-01-20T17:35:58.894Z,-2.90
2019-01-20T17:38:27.925Z,-2.90
2019-01-20T17:41:03.142Z,-3.00
2019-01-20T17:43:30.918Z,-3.00
2019-01-20T17:45:58.762Z,-3.10
2019-01-20T17:48:27.270Z,-3.10
2019-01-20T17:50:55.266Z,-3.10
2019-01-20T17:53:23.143Z,-3.20
2019-01-20T17:55:51.151Z,-3.30
2019-01-20T17:58:19.356Z,-3.30
2019-01-20T18:00:50.088Z,-3.40
2019-01-20T18:03:18.213Z,-3.40
2019-01-20T18:05:46.406Z,-3.40
2019-01-20T18:08:14.208Z,-3.40
2019-01-20T18:10:42.529Z,-3.50
2019-01-20T18:13:10.769Z,-3.50
2019-01-20T18:15:38.760Z,-3.50
2019-01-20T18:18:08.584Z,-3.60
2019-01-20T18:20:36.444Z,-3.60
2019-01-20T18:23:04.811Z,-3.60
2019-01-20T18:25:32.818Z,-3.60
2019-01-20T18:28:01.389Z,-3.60
2019-01-20T18:30:29.613Z,-3.60
2019-01-20T18:33:03.276Z,-3.70
2019-01-20T18:38:42.110Z,-3.70
2019-01-20T18:41:18.664Z,-3.80
2019-01-20T18:43:47.848Z,-3.80
2019-01-20T18:46:16.414Z,-3.90
2019-01-20T18:48:53.205Z,-3.90
2019-01-20T18:51:36.653Z,-4.00
2019-01-20T18:54:12.630Z,-4.00
2019-01-20T18:56:42.354Z,-4.00
2019-01-20T19:08:44.325Z,-4.20
2019-01-20T19:14:57.655Z,-4.30
2019-01-20T19:20:46.083Z,-4.40
2019-01-20T19:23:45.203Z,-4.40
2019-01-20T19:26:14.962Z,-4.40
2019-01-20T19:29:22.519Z,-4.30
2019-01-20T19:32:09.319Z,-4.30
2019-01-20T19:38:08.664Z,-4.30
2019-01-20T19:40:44.399Z,-4.40
2019-01-20T19:43:16.492Z,-4.40
2019-01-20T19:45:47.428Z,-4.30
2019-01-20T19:48:20.202Z,-4.40
2019-01-20T19:50:48.902Z,-4.40
2019-01-20T19:53:19.383Z,-4.40
2019-01-20T19:55:55.186Z,-4.50
2019-01-20T19:58:30.646Z,-4.50
2019-01-20T20:01:01.653Z,-4.60
2019-01-20T20:03:44.401Z,-4.60
2019-01-20T20:06:29.762Z,-4.60
2019-01-20T20:09:09.091Z,-4.70
2019-01-20T20:11:39.675Z,-4.70
2019-01-20T20:14:13.890Z,-4.70
2019-01-20T20:16:55.460Z,-4.70
2019-01-20T20:19:22.221Z,-4.70
2019-01-20T20:21:54.628Z,-4.80
2019-01-20T20:24:25.628Z,-4.80
2019-01-20T20:26:55.786Z,-4.90
2019-01-20T20:29:25.442Z,-4.90
2019-01-20T20:31:54.643Z,-5.00
2019-01-20T20:34:24.208Z,-5.00
2019-01-20T20:37:00.395Z,-5.10
2019-01-20T20:39:42.238Z,-5.10
2019-01-20T20:42:11.712Z,-5.20
2019-01-20T20:44:42.156Z,-5.10
2019-01-20T20:47:21.681Z,-5.20
2019-01-20T20:50:10.849Z,-5.20
2019-01-20T20:53:03.282Z,-5.30
2019-01-20T20:55:32.576Z,-5.40
2019-01-20T20:58:06.594Z,-5.40
2019-01-20T21:00:50.493Z,-5.50
2019-01-20T21:03:32.711Z,-5.50
2019-01-20T21:07:03.687Z,-5.60
2019-01-20T21:09:25.172Z,-5.70
2019-01-20T21:12:00.872Z,-5.70
2019-01-20T21:14:30.231Z,-5.60
2019-01-20T21:16:58.980Z,-5.60
2019-01-20T21:19:34.027Z,-5.60
2019-01-20T21:22:25.084Z,-5.60
2019-01-20T21:25:02.265Z,-5.50
2019-01-20T21:27:31.314Z,-5.50
2019-01-20T21:29:59.685Z,-5.50
2019-01-20T21:32:28.962Z,-5.50
2019-01-20T21:34:56.783Z,-5.50
2019-01-20T21:37:24.396Z,-5.40
2019-01-20T21:39:52.230Z,-5.40
2019-01-20T21:42:20.008Z,-5.40
2019-01-20T21:44:47.747Z,-5.30
2019-01-20T21:47:15.154Z,-5.30
2019-01-20T21:49:43.391Z,-5.30
2019-01-20T21:52:10.956Z,-5.20
2019-01-20T21:54:38.688Z,-5.20
2019-01-20T21:57:06.521Z,-5.20
2019-01-20T21:59:34.431Z,-5.20
2019-01-20T22:02:02.301Z,-5.10
2019-01-20T22:04:30.331Z,-5.10
2019-01-20T22:06:58.617Z,-5.10
2019-01-20T22:09:26.677Z,-5.10
2019-01-20T22:11:55.048Z,-5.20
2019-01-20T22:14:22.980Z,-5.20
2019-01-20T22:16:52.775Z,-5.30
2019-01-20T22:19:20.860Z,-5.30
2019-01-20T22:21:48.821Z,-5.30
2019-01-20T22:24:16.862Z,-5.30
2019-01-20T22:26:44.735Z,-5.30
2019-01-20T22:29:12.831Z,-5.40
2019-01-20T22:31:41.352Z,-5.50
2019-01-20T22:34:09.734Z,-5.50
2019-01-20T22:36:37.649Z,-5.60
2019-01-20T22:39:07.324Z,-5.50
2019-01-20T22:41:35.344Z,-5.50
2019-01-20T22:44:03.494Z,-5.40
2019-01-20T22:46:31.430Z,-5.50
2019-01-20T22:48:59.454Z,-5.40
2019-01-20T22:51:27.371Z,-5.50
2019-01-20T22:53:55.305Z,-5.50
2019-01-20T22:56:23.179Z,-5.50
2019-01-20T22:58:51.081Z,-5.50
2019-01-20T23:01:22.387Z,-5.50
2019-01-20T23:03:50.201Z,-5.70
2019-01-20T23:06:18.054Z,-5.70
2019-01-20T23:08:45.841Z,-5.80
2019-01-20T23:11:13.634Z,-5.80
2019-01-20T23:13:41.462Z,-5.90
2019-01-20T23:16:09.371Z,-5.90
2019-01-20T23:18:37.129Z,-5.90
2019-01-20T23:21:04.758Z,-5.90
2019-01-20T23:23:32.554Z,-6.00
2019-01-20T23:26:02.892Z,-6.00
2019-01-20T23:28:30.782Z,-6.00
2019-01-20T23:30:58.798Z,-6.10
2019-01-20T23:33:26.275Z,-6.00
2019-01-20T23:35:53.948Z,-6.00
2019-01-20T23:38:21.980Z,-6.00
2019-01-20T23:40:49.861Z,-6.00
2019-01-20T23:43:18.181Z,-6.00
2019-01-20T23:45:46.138Z,-6.00
2019-01-20T23:48:14.113Z,-6.00
2019-01-20T23:50:42.040Z,-6.00
2019-01-20T23:53:09.619Z,-6.00
2019-01-20T23:55:37.701Z,-6.00
2019-01-20T23:58:05.379Z,-5.90
